Main page
METAR-TAF:

METAR-TAF

Airports :

Khartoum International Airport

Khartoum, Sudan

latitude: 15-36N, longitude: 032-33E, elevation: 382 m

Current weather observation

The report was made 30 minutes ago, at 22:00 UTC
Wind 11 kt from the North
Temperature 26°C
Humidity 9%
Pressure 1014 hPa
Visibility 10 km or more
no clouds below 1500 m and no cumulonimbus

METAR: HSSS 182200Z 35011KT CAVOK 26/M09 Q1014 NOSIG

Time: 01:30 (22:30 UTC)

Forecast

The report was made 5 hours and 30 minutes ago, at 17:00 UTC
Forecast valid from 18 at 18 UTC to 19 at 24 UTC
Wind 8 kt from the North with gusts up to 18 kt
Visibility 10 km or more
no clouds below 1500 m and no cumulonimbus

TAF: HSSS 181700Z 1818/1924 36008G18KT CAVOK

Weather observations and forecasts of more than 4000 airports (METAR and TAF reports).

The available stations are represented by yellow and red dots on the map.

Hover mouse over dot to see the name of the station.

Then click to see weather observations and forecasts.

To change the map : click on the green buttons with a black cross to zoom in, on the green button with a dash to zoom out, or on the green arrows for adjacent maps.


METAR-TAF: